boomaga's sites:

title views votes rating creation
?Lee Raymond melts 5,663 145 (3.17)  2005-11-08
?(nsfw) Terror Squad doing it old school [mashup] 6,664 157 (3.87)  2005-11-08
?(nsfw) Young Buck doing it old school 5,899 157 (3.82)  2005-11-08
?Busta Rymes doing it old school 12,477 209 (3.99)  2005-11-08
?It's like looking into the future 6,355 133 (3.49)  2005-11-08
?AH ! Egg Drop Soup 4,268 149 (3.62)  2005-11-09
?A Drinking Problem ? 3,175 122 (3.57)  2005-11-10
?Crotchflossing with George Takei 5,242 130 (3.75)  2005-11-11
?Wide World of Khans 6,067 126 (3.63)  2005-11-11
?ThunderCats: Lion-O is distracted ! 7,059 140 (3.81)  2005-11-11
?(nsfw) 80's Hair Metal goes SQUIBBILY-DO... 5,972 174 (3.97)  2005-11-12
?Death-Row Prisoner had ONE weakness... 6,096 135 (3.56)  2005-11-13
?Two-headed baby doesn't change facial exp... 8,782 170 (3.56)  2005-11-17
?Eggfart Nightmare Boogie Moron Spliff Roach Mote... 3,057 109 (3.64)  2005-11-22
?Fruit Salad - Dance Dance Chibi-style ! 10,688 179 (3.83)  2005-11-28
?PILZBARTH 1,721 107 (3.53)  2005-11-28
?Legend of the Mystical Ninja 6,159 153 (3.88)  2005-11-29
?Would You Eat Yourself ? 6,496 159 (3.93)  2005-12-05
?Harry's Severed Head Adventures 4,178 120 (3.71)  2005-12-05
?(nsfw) I took your mom to the prom, long before y... 5,261 106 (3.53)  2005-12-05
?Jesus in a Compromising Position 3,066 136 (3.26)  2005-12-06
?Jesus Makes a Major Comeback lol 5,523 136 (3.65)  2005-12-06
?lol Jesus is Tony Robbins (fxd) 3,037 106 (3.61)  2005-12-07
?Jesus Gimmie a "T" ! lol 8,779 142 (3.75)  2005-12-07
?Something happens, and do-do-doot-do-doo 6,135 155 (3.97)  2005-12-08
?ACE OF SPADES - Lemmy 6,352 134 (3.95)  2005-12-08
?Jesus is a Lion ROR... (new fad music) 4,882 99 (3.38)  2005-12-08
?(nsfw) Antonius Sopranus Maximus badabingi 3,683 118 (3.69)  2005-12-08
?Amazing Larry 11,504 99 (3.62)  2005-12-08
?(nsfw) Elephant Riders, pt. 1 of 3 [YA GOT TA RE... 2,952 105 (3.63)  2005-12-10
?Elephant Riders, pt. 2 of 3 [REFRESHN YOSELF] 2,631 99 (3.69)  2005-12-10
?Elephant Riders, pt. 3 of 3 [REFRESH POWER G... 1,486 95 (3.57)  2005-12-10
?(nsfw) R.I.P. Richard Pryor (heart attack routine) 10,256 172 (3.97)  2005-12-10
?(nsfw) It's Still REAL to Me, Dammit ! 8,900 111 (3.77)  2005-12-11
?YTMND Top 15 on any given night 6,627 177 (4.01)  2005-12-12
?YTMND Hall of Fame back in the day 4,034 124 (3.71)  2005-12-13
?RiboFLAvin-glayvin 3,797 114 (3.68)  2005-12-13
?Ralph Wiggum's Opium Dream (Hurdygurd... 13,356 409 (4.04)  2005-12-14
?Ralph Wiggum's Opium Dream (Little Fluffy ... 3,930 147 (3.94)  2005-12-14
?(nsfw) Lazytown: Too Adorable [SHOCKING IMA... 51,388 425 (3.88)  2005-12-15
?Fat Boys vs. Space Ghost 3,670 114 (3.76)  2005-12-17
?At the Temple of Doom, they worship... 6,429 141 (3.85)  2005-12-19
?(nsfw) SKEET SKEET bad aim 10,526 181 (3.65)  2005-12-19
?Ytmndgirl Fails at YTMND (original) 8,422 238 (3.95)  2005-12-30
?MGS Soldiers on Acid think they hear footsteps 25,509 505 (4.09)  2006-01-03
?YTMND War Veterans - We Salute You 99,974 1,333 (4.26)  2006-01-09
?The Bauman E-mails: A Dramatic Reading 635,342 10,389 (4.50)  2006-01-11
?Father of LSD - Happy Birthday Albert Hofmann 9,426 205 (4.02)  2006-01-17
?Strong Bad Stares You Down ! 5,365 160 (3.72)  2006-01-17
?Nagin's Chocolate Milk 21,375 549 (4.10)  2006-01-17
?Spotz's Rappin Grandma REMIXD 10,164 314 (4.01)  2006-01-18
?(nsfw) Squeeze Squeeze AWESOME 9,069 232 (3.96)  2006-01-27
?Year o' the Dog Now, Man !: Happy C... 4,251 163 (3.99)  2006-01-29
?The Many Faces of Josh Mankiewicz 3,145 87 (3.78)  2006-02-02
?Lovin' Dan is a 60 Minute Man [REFRESH&#... 2,883 116 (3.78)  2006-02-02
?Ice Cube Superstar: a rock opera 5,632 115 (3.91)  2006-02-06
?The Block (existence by absence) 1,636 131 (3.68)  2006-02-07
?MST3K Runaway Truck - Stop it ! 11,032 421 (4.07)  2006-02-09
?(nsfw) Love Missile 14,147 572 (4.10)  2006-02-10
?Tom Servo loses his cool 3,522 106 (3.81)  2006-02-13
?YTMND Forums - Why Don't I Ever See Y... 7,816 115 (3.77)  2006-02-16
?(nsfw) Mom's Hot Biscuits [Now Lighter and F... 37,066 571 (3.82)  2006-02-19
?James Brown, how you feelin' ? 3,032 103 (3.81)  2006-02-19
?YTMND Dub - It's a Feeling [radio edit] 12,547 245 (3.99)  2006-02-21
?The Source of All of Inkdrinker's Dark Pow... 3,721 103 (3.64)  2006-02-24
?What Makes Inkdrinker Happy 3,288 112 (3.54)  2006-02-24
?(nsfw) A Fox Bewbs Special Report 11,071 362 (3.90)  2006-03-02
?how i did love bell peppers by andy age 9 39,672 1,082 (4.29)  2006-03-02
?how we be ridin spinnaz by us age 9 30,852 716 (4.07)  2006-03-04
?(nsfw) Keep Ridin' Those Spinnaz... 13,440 215 (3.99)  2006-03-04
?Balloon 4,074 139 (3.93)  2006-03-08
?Join The Dew Army newsreel 52,818 1,919 (4.35)  2006-03-08
?James Gorman Will CRUSH You [updated] 6,589 196 (4.00)  2006-03-08
?Troi Sent Dough, Who Sent That Ho-Ho ? 25,030 483 (4.14)  2006-03-09
?YTMND Drawball Yay! [updated] 3,232 101 (3.72)  2006-03-13
?Goddamn, I'm funny 1,659 90 (3.07)  2006-03-13
?Durnk Leprechauns 1,441 77 (3.64)  2006-03-18
?PTKFGS: The Bauman E-mails: A Dramatic Readi... 67,381 3,476 (4.39)  2006-03-20
?YESYES: The Skeeter E-mails: Read it out loud 30,560 854 (4.12)  2006-03-20
?test only plz dont vote seriously do not click [restore... 23,675 618 (3.52)  2006-03-23
?Journey ! 2,126 112 (3.57)  2006-03-27
?Green Means GO (Old People Shouldn't Dri... 7,989 291 (3.98)  2006-03-28
?(nsfw) MACHRIDER PWNS US ALL 3,176 107 (3.80)  2006-03-29
?The Apgar Email: Dramatic Readings [commissione... 5,681 156 (3.94)  2006-03-31
?Celebrity Shopping - Steve Perry buys cola 5,791 93 (3.45)  2006-04-04
?IMN 4,187 206 (3.68)  2006-04-05
?ERR 2,273 201 (3.73)  2006-04-05
?NRY 1,999 189 (3.75)  2006-04-05
?BTH 1,969 181 (3.70)  2006-04-05
?BGR 3,112 179 (3.66)  2006-04-05
?UAT 1,929 175 (3.79)  2006-04-05
?FCW 3,923 622 (2.48)  2006-04-05
?The Explanation. 8,894 523 (4.04)  2006-04-07
?Surfin' Exodus ! 4,499 228 (4.03)  2006-04-20
?Well... so long, then. (not retiring yet) 1,173 102 (3.33)  2006-04-27
?We Party Now 6,306 222 (3.98)  2006-04-28
?Modern Times Got Me Down 1,477 73 (3.63)  2006-04-28
?Whatchu Know About Chord Progressions ? 19,251 811 (4.34)  2006-05-02
?lol, MIDI orchestra 114,113 1,609 (4.48)  2006-05-31
?The Price is Jazz 28,849 944 (4.44)  2006-05-31
?Boo Talks 'Bout Scientology (1 of 7) 36,831 1,073 (4.30)  2006-06-13
?Boo Talks 'Bout Scientology (2 of 7) 20,058 770 (4.30)  2006-06-13
?Boo Talks 'Bout Scientology (3 of 7) 17,623 664 (4.30)  2006-06-13
?Boo Talks 'Bout Scientology (4 of 7) 15,481 610 (4.29)  2006-06-13
?Boo Talks 'Bout Scientology (5 of 7) 13,221 550 (4.15)  2006-06-14
?Boo Talks 'Bout Scientology (6 of 7) 13,102 443 (4.13)  2006-06-20
?Boo Talks 'Bout Scientology (7 of 7) 57,864 1,267 (4.55)  2006-06-20
?SunnyRay, Club Diva: Put Your Shoe on the Head 32,353 613 (4.03)  2006-06-22
?Haircut Regret ! 10,447 455 (3.98)  2006-06-22
?Just Keep Telling Yourself That, eBaum 44,661 1,001 (4.35)  2006-06-27
?On the train, I think I slept, eyes open, staring out the... 3,540 102 (4.00)  2006-07-05
?At the movies, back in the day... [v2, with hecklers] 4,105 174 (3.75)  2006-07-07
?(nsfw) Test Site, Dummy 4,337 80 (3.89)  2006-07-19
?Max makes the cover of "Wired" ! 28,818 596 (4.17)  2006-07-21
?Zimmer Gonna SEX YOU UP (sfw img) 53,159 842 (4.12)  2006-07-28
?How I did dream seahorseys by ROY4L, age 9 10,279 426 (4.04)  2006-07-29
?Surreal Snakes on a Plane 25,728 609 (3.90)  2006-08-06
?Let's Learn Estonian ! with Erkki 15,327 515 (4.13)  2006-08-07
?YTMND Fad Stock Market - Results set 1 12,821 481 (4.06)  2006-08-10
?(nsfw) Stickam Assraid !: A Proud Day for Intern... 7,177 310 (3.85)  2006-08-16
?Dig 'Em® Scams the Man 12,269 444 (3.97)  2006-08-20
?Habbo Raid: So Worthwhile ! 6,318 86 (3.91)  2006-09-12
?Sudoku for Dummies 2,034 53 (4.00)  2006-09-19
?BEEEEEE MMMMMOOOOOORREEE FFFUUNN... 1,410 65 (3.68)  2006-10-24
?Miles and miles and miles and miles and miles and ... 1,995 52 (3.98)  2006-12-19
?WARNING ! SAFETY FIRST ! [updated] 12,928 404 (4.14)  2006-12-19
?How April and I Got Together (an MS Paint Relation... 2,882 41 (3.63)  2006-12-19
?(nsfw) Bittersweet Pooper 15,948 158 (4.08)  2006-12-21
?Boomaga's The Sound of Christmas 25,414 798 (4.48)  2006-12-22
?The Godfather in His Prime, pt. 1 ['62] 4,091 133 (3.78)  2006-12-25
?The Godfather in his Prime, pt. 2 ('56-&... 8,593 177 (3.78)  2006-12-25
?boomaga age4 2,214 90 (3.61)  2006-12-26
?What's that ?... And that ? 1,191 38 (3.82)  2006-12-28
?Rooty Patooty 5,193 43 (4.21)  2006-12-29
?We Love Spotz 3,718 111 (3.82)  2007-01-10
?Ocular Dystromylia in Bubbleland 2,062 29 (3.62)  2007-01-10
?Come Bathe with Me 16,026 280 (3.66)  2007-01-10
?REAL Official Sega-Europe Sonic The Hedgehog ... 38,345 770 (4.50)  2007-01-12